createdAt,value
2018-05-03T00:02:18.684Z,15.30
2018-05-03T00:04:47.671Z,15.40
2018-05-03T00:07:15.911Z,15.30
2018-05-03T00:09:44.183Z,15.40
2018-05-03T00:12:12.427Z,15.40
2018-05-03T00:14:41.416Z,15.30
2018-05-03T00:17:10.420Z,15.20
2018-05-03T00:19:38.676Z,15.10
2018-05-03T00:22:07.665Z,15.10
2018-05-03T00:24:36.672Z,15.10
2018-05-03T00:27:05.676Z,15.00
2018-05-03T00:29:34.689Z,15.00
2018-05-03T00:32:02.905Z,15.00
2018-05-03T00:34:31.146Z,15.10
2018-05-03T00:36:59.409Z,15.10
2018-05-03T00:39:28.368Z,15.10
2018-05-03T00:41:57.388Z,15.00
2018-05-03T00:44:25.604Z,14.90
2018-05-03T00:46:53.830Z,15.00
2018-05-03T00:49:22.067Z,15.00
2018-05-03T00:51:50.319Z,15.00
2018-05-03T00:54:30.399Z,15.00
2018-05-03T00:56:58.616Z,15.00
2018-05-03T00:59:27.631Z,14.90
2018-05-03T01:01:55.876Z,14.90
2018-05-03T01:04:24.862Z,14.80
2018-05-03T01:06:53.853Z,14.80
2018-05-03T01:09:22.084Z,14.80
2018-05-03T01:11:50.297Z,14.80
2018-05-03T01:14:18.563Z,14.80
2018-05-03T01:16:46.775Z,14.80
2018-05-03T01:19:15.783Z,15.00
2018-05-03T01:21:44.012Z,14.90
2018-05-03T01:24:12.252Z,15.00
2018-05-03T01:26:40.484Z,15.00
2018-05-03T01:29:09.617Z,14.90
2018-05-03T01:31:37.852Z,14.90
2018-05-03T01:34:06.853Z,14.90
2018-05-03T01:36:35.859Z,14.90
2018-05-03T01:39:04.084Z,14.90
2018-05-03T01:41:32.320Z,14.90
2018-05-03T01:44:00.541Z,14.90
2018-05-03T01:46:28.775Z,15.00
2018-05-03T01:48:57.005Z,15.00
2018-05-03T01:51:25.240Z,15.00
2018-05-03T01:53:53.480Z,15.00
2018-05-03T01:56:22.467Z,15.00
2018-05-03T01:58:51.476Z,15.00
2018-05-03T02:01:19.720Z,14.90
2018-05-03T02:03:47.960Z,15.00
2018-05-03T02:06:16.196Z,14.90
2018-05-03T02:08:45.207Z,15.00
2018-05-03T02:11:13.446Z,14.90
2018-05-03T02:13:41.642Z,15.00
2018-05-03T02:16:10.638Z,14.90
2018-05-03T02:18:38.856Z,14.90
2018-05-03T02:21:07.094Z,14.90
2018-05-03T02:23:35.335Z,15.00
2018-05-03T02:26:03.559Z,15.00
2018-05-03T02:28:31.792Z,15.00
2018-05-03T02:31:00.033Z,15.00
2018-05-03T02:33:28.284Z,15.00
2018-05-03T02:35:56.551Z,15.00
2018-05-03T02:38:24.768Z,15.00
2018-05-03T02:40:53.020Z,15.00
2018-05-03T02:43:21.248Z,15.00
2018-05-03T02:45:49.493Z,15.00
2018-05-03T02:48:17.718Z,15.00
2018-05-03T02:50:46.728Z,14.90
2018-05-03T02:53:14.931Z,14.80
2018-05-03T02:55:43.169Z,14.90
2018-05-03T02:58:24.020Z,14.90
2018-05-03T03:01:09.947Z,14.80
2018-05-03T03:03:55.771Z,14.90
2018-05-03T03:06:41.563Z,14.90
2018-05-03T03:09:27.461Z,14.90
2018-05-03T03:15:39.106Z,14.80
2018-05-03T03:18:20.028Z,14.80
2018-05-03T03:21:06.819Z,14.70
2018-05-03T03:23:52.533Z,14.70
2018-05-03T03:29:58.772Z,14.70
2018-05-03T03:32:38.955Z,14.70
2018-05-03T03:38:36.811Z,14.70
2018-05-03T03:41:17.652Z,14.70
2018-05-03T03:43:57.687Z,14.70
2018-05-03T03:46:25.929Z,14.70
2018-05-03T03:48:54.185Z,14.60
2018-05-03T03:51:23.180Z,14.60
2018-05-03T03:53:52.189Z,14.60
2018-05-03T03:56:20.404Z,14.60
2018-05-03T03:58:48.648Z,14.60
2018-05-03T04:01:16.854Z,14.60
2018-05-03T04:03:45.106Z,14.60
2018-05-03T04:06:13.342Z,14.60
2018-05-03T04:08:42.379Z,14.50
2018-05-03T04:11:10.598Z,14.50
2018-05-03T04:13:38.812Z,14.50
2018-05-03T04:16:07.098Z,14.50
2018-05-03T04:18:47.835Z,14.50
2018-05-03T04:21:27.943Z,14.50
2018-05-03T04:24:09.012Z,14.50
2018-05-03T04:26:37.236Z,14.50
2018-05-03T04:29:06.244Z,14.50
2018-05-03T04:31:35.262Z,14.50
2018-05-03T04:34:03.479Z,14.40
2018-05-03T04:36:31.794Z,14.50
2018-05-03T04:39:00.815Z,14.50
2018-05-03T04:41:29.065Z,14.50
2018-05-03T04:43:58.060Z,14.50
2018-05-03T04:46:27.075Z,14.50
2018-05-03T04:48:55.332Z,14.40
2018-05-03T04:51:23.553Z,14.60
2018-05-03T04:53:51.796Z,14.60
2018-05-03T04:56:20.017Z,14.60
2018-05-03T04:58:48.252Z,14.70
2018-05-03T05:01:16.503Z,14.70
2018-05-03T05:03:44.722Z,14.70
2018-05-03T05:06:12.955Z,14.80
2018-05-03T05:08:41.975Z,14.80
2018-05-03T05:11:10.231Z,14.80
2018-05-03T05:13:38.460Z,14.80
2018-05-03T05:16:06.683Z,14.90
2018-05-03T05:18:35.684Z,14.90
2018-05-03T05:21:03.905Z,14.90
2018-05-03T05:23:32.152Z,14.90
2018-05-03T05:26:00.401Z,14.90
2018-05-03T05:28:28.631Z,14.90
2018-05-03T05:30:56.897Z,14.90
2018-05-03T05:33:25.121Z,14.90
2018-05-03T05:35:54.111Z,14.90
2018-05-03T05:38:23.125Z,14.90
2018-05-03T05:40:51.415Z,14.90
2018-05-03T05:43:19.649Z,14.90
2018-05-03T05:45:47.873Z,14.90
2018-05-03T05:48:16.129Z,15.00
2018-05-03T05:50:44.348Z,15.00
2018-05-03T05:53:12.592Z,15.00
2018-05-03T05:55:40.830Z,15.00
2018-05-03T05:58:09.063Z,14.90
2018-05-03T06:00:37.290Z,15.00
2018-05-03T06:03:06.290Z,15.00
2018-05-03T06:05:35.287Z,15.00
2018-05-03T06:08:04.281Z,15.00
2018-05-03T06:10:33.291Z,15.00
2018-05-03T06:13:01.574Z,15.00
2018-05-03T06:15:29.799Z,15.20
2018-05-03T06:17:58.029Z,15.20
2018-05-03T06:20:27.075Z,15.20
2018-05-03T06:22:55.296Z,15.20
2018-05-03T06:25:23.543Z,15.30
2018-05-03T06:27:51.762Z,15.30
2018-05-03T06:30:19.995Z,15.40
2018-05-03T06:32:48.237Z,15.50
2018-05-03T06:35:16.515Z,15.50
2018-05-03T06:37:44.709Z,15.50
2018-05-03T06:40:13.204Z,15.50
2018-05-03T06:42:41.475Z,15.60
2018-05-03T06:45:10.465Z,15.60
2018-05-03T06:47:38.682Z,15.60
2018-05-03T06:50:07.027Z,15.60
2018-05-03T06:52:36.041Z,15.60
2018-05-03T06:55:04.256Z,15.60
2018-05-03T06:57:32.575Z,15.50
2018-05-03T07:00:01.557Z,15.50
2018-05-03T07:02:29.795Z,15.50
2018-05-03T07:04:58.033Z,15.50
2018-05-03T07:07:27.017Z,15.60
2018-05-03T07:09:56.021Z,15.70
2018-05-03T07:12:24.231Z,15.60
2018-05-03T07:14:52.444Z,15.70
2018-05-03T07:17:20.680Z,15.60
2018-05-03T07:19:50.499Z,15.60
2018-05-03T07:22:18.752Z,15.60
2018-05-03T07:24:46.992Z,15.70
2018-05-03T07:27:15.245Z,15.80
2018-05-03T07:29:43.493Z,15.90
2018-05-03T07:32:11.711Z,15.90
2018-05-03T07:34:39.944Z,15.80
2018-05-03T07:37:08.196Z,15.80
2018-05-03T07:39:36.498Z,15.90
2018-05-03T07:42:05.480Z,15.90
2018-05-03T07:44:33.692Z,15.90
2018-05-03T07:47:01.935Z,16.00
2018-05-03T07:49:30.196Z,16.00
2018-05-03T07:51:59.221Z,16.00
2018-05-03T07:54:27.494Z,16.10
2018-05-03T07:56:55.719Z,16.10
2018-05-03T07:59:24.758Z,16.10
2018-05-03T08:01:53.740Z,16.20
2018-05-03T08:04:22.004Z,16.20
2018-05-03T08:06:50.214Z,16.20
2018-05-03T08:09:18.551Z,16.30
2018-05-03T08:11:46.823Z,16.30
2018-05-03T08:14:15.053Z,16.40
2018-05-03T08:16:43.297Z,16.40
2018-05-03T08:19:11.507Z,16.30
2018-05-03T08:21:39.756Z,16.40
2018-05-03T08:24:08.469Z,16.40
2018-05-03T08:26:36.714Z,16.40
2018-05-03T08:29:04.959Z,16.50
2018-05-03T08:31:33.437Z,16.40
2018-05-03T08:34:01.763Z,16.40
2018-05-03T08:36:30.013Z,16.30
2018-05-03T08:38:58.228Z,16.30
2018-05-03T08:41:26.529Z,16.30
2018-05-03T08:43:54.764Z,16.40
2018-05-03T08:46:22.987Z,16.40
2018-05-03T08:48:51.305Z,16.40
2018-05-03T08:51:19.546Z,16.40
2018-05-03T08:53:47.776Z,16.30
2018-05-03T08:56:15.994Z,16.30
2018-05-03T08:58:44.238Z,16.40
2018-05-03T09:01:12.488Z,16.40
2018-05-03T09:03:40.728Z,16.40
2018-05-03T09:06:09.780Z,16.40
2018-05-03T09:08:37.996Z,16.40
2018-05-03T09:11:06.999Z,16.40
2018-05-03T09:13:36.122Z,16.50
2018-05-03T09:16:05.078Z,16.60
2018-05-03T09:18:34.075Z,16.70
2018-05-03T09:21:02.300Z,16.60
2018-05-03T09:23:30.545Z,16.70
2018-05-03T09:25:58.776Z,16.60
2018-05-03T09:28:27.097Z,16.60
2018-05-03T09:30:55.337Z,16.60
2018-05-03T09:33:23.558Z,16.60
2018-05-03T09:35:51.900Z,16.70
2018-05-03T09:38:20.081Z,16.70
2018-05-03T09:40:49.085Z,16.70
2018-05-03T09:43:18.080Z,16.80
2018-05-03T09:45:47.063Z,16.80
2018-05-03T09:48:16.079Z,16.80
2018-05-03T09:50:44.312Z,16.80
2018-05-03T09:53:12.543Z,16.90
2018-05-03T09:55:40.770Z,16.90
2018-05-03T09:58:08.994Z,17.00
2018-05-03T10:00:37.232Z,17.00
2018-05-03T10:03:05.445Z,17.00
2018-05-03T10:05:33.693Z,17.00
2018-05-03T10:08:02.675Z,17.20
2018-05-03T10:10:30.922Z,17.20
2018-05-03T10:12:59.150Z,17.30
2018-05-03T10:15:28.133Z,17.30
2018-05-03T10:17:57.143Z,17.30
2018-05-03T10:20:26.171Z,17.40
2018-05-03T10:22:54.380Z,17.30
2018-05-03T10:25:22.583Z,17.40
2018-05-03T10:27:50.823Z,17.40
2018-05-03T10:30:19.120Z,17.40
2018-05-03T10:32:47.374Z,17.40
2018-05-03T10:35:15.592Z,17.50
2018-05-03T10:37:43.791Z,17.50
2018-05-03T10:40:12.039Z,17.60
2018-05-03T10:42:41.020Z,17.70
2018-05-03T10:45:10.022Z,17.70
2018-05-03T10:47:39.007Z,17.70
2018-05-03T10:50:08.019Z,17.80
2018-05-03T10:52:36.234Z,17.70
2018-05-03T10:55:05.218Z,17.80
2018-05-03T10:57:33.496Z,17.80
2018-05-03T11:00:02.465Z,17.90
2018-05-03T11:02:30.702Z,17.90
2018-05-03T11:04:58.940Z,17.90
2018-05-03T11:07:27.179Z,17.90
2018-05-03T11:09:56.191Z,17.90
2018-05-03T11:12:24.413Z,17.90
2018-05-03T11:14:52.643Z,18.00
2018-05-03T11:17:20.892Z,18.00
2018-05-03T11:19:49.889Z,18.00
2018-05-03T11:22:18.906Z,18.00
2018-05-03T11:24:47.862Z,18.00
2018-05-03T11:27:17.023Z,17.90
2018-05-03T11:29:45.346Z,17.90
2018-05-03T11:32:13.540Z,17.90
2018-05-03T11:34:41.788Z,18.00
2018-05-03T11:37:10.007Z,18.10
2018-05-03T11:39:38.254Z,18.20
2018-05-03T11:42:07.275Z,18.40
2018-05-03T11:44:35.503Z,18.30
2018-05-03T11:47:03.726Z,18.40
2018-05-03T11:49:32.018Z,18.40
2018-05-03T11:52:00.253Z,18.40
2018-05-03T11:54:29.267Z,18.60
2018-05-03T11:56:57.506Z,18.50
2018-05-03T11:59:25.836Z,18.70
2018-05-03T12:01:53.987Z,18.60
2018-05-03T12:04:22.227Z,18.60
2018-05-03T12:06:50.452Z,18.70
2018-05-03T12:09:18.692Z,18.70
2018-05-03T12:11:47.750Z,18.70
2018-05-03T12:14:15.919Z,18.70
2018-05-03T12:16:44.159Z,18.70
2018-05-03T12:19:12.575Z,18.70
2018-05-03T12:21:40.821Z,18.80
2018-05-03T12:24:09.070Z,18.70
2018-05-03T12:26:37.288Z,18.80
2018-05-03T12:29:05.531Z,18.80
2018-05-03T12:31:33.757Z,18.90
2018-05-03T12:34:02.020Z,18.90
2018-05-03T12:36:30.242Z,18.90
2018-05-03T12:38:58.958Z,18.80
2018-05-03T12:41:27.208Z,18.80
2018-05-03T12:43:56.211Z,18.80
2018-05-03T12:46:25.202Z,18.80
2018-05-03T12:48:54.229Z,18.80
2018-05-03T12:51:22.479Z,18.70
2018-05-03T12:53:51.464Z,18.90
2018-05-03T12:56:20.455Z,18.90
2018-05-03T12:58:49.458Z,18.90
2018-05-03T13:01:18.467Z,18.90
2018-05-03T13:03:46.692Z,18.90
2018-05-03T13:06:14.939Z,18.90
2018-05-03T13:08:43.188Z,19.00
2018-05-03T13:11:11.405Z,19.00
2018-05-03T13:13:39.627Z,19.00
2018-05-03T13:16:08.649Z,19.00
2018-05-03T13:18:36.884Z,18.90
2018-05-03T13:21:05.113Z,18.90
2018-05-03T13:23:33.360Z,18.90
2018-05-03T13:26:02.344Z,19.00
2018-05-03T13:28:31.339Z,19.00
2018-05-03T13:31:00.334Z,19.00
2018-05-03T13:33:29.330Z,19.00
2018-05-03T13:35:57.561Z,18.90
2018-05-03T13:38:25.789Z,19.00
2018-05-03T13:40:54.779Z,19.10
2018-05-03T13:43:23.054Z,19.00
2018-05-03T13:45:52.146Z,19.00
2018-05-03T13:48:21.124Z,19.00
2018-05-03T13:50:50.013Z,19.00
2018-05-03T13:53:18.220Z,19.00
2018-05-03T13:55:46.434Z,19.00
2018-05-03T13:58:14.867Z,19.10
2018-05-03T14:00:43.171Z,19.10
2018-05-03T14:03:11.344Z,19.10
2018-05-03T14:05:39.588Z,19.10
2018-05-03T14:08:07.828Z,19.10
2018-05-03T14:10:36.054Z,19.20
2018-05-03T14:13:04.654Z,19.20
2018-05-03T14:15:32.807Z,19.20
2018-05-03T14:18:01.033Z,19.10
2018-05-03T14:20:29.275Z,19.20
2018-05-03T14:22:57.496Z,19.10
2018-05-03T14:25:25.993Z,19.20
2018-05-03T14:27:54.204Z,19.20
2018-05-03T14:30:22.438Z,19.20
2018-05-03T14:32:50.671Z,19.20
2018-05-03T14:35:18.900Z,19.20
2018-05-03T14:37:47.141Z,19.20
2018-05-03T14:40:15.368Z,19.30
2018-05-03T14:42:43.613Z,19.30
2018-05-03T14:45:11.839Z,19.30
2018-05-03T14:47:40.066Z,19.40
2018-05-03T14:50:08.312Z,19.40
2018-05-03T14:52:36.523Z,19.40
2018-05-03T14:55:04.753Z,19.40
2018-05-03T14:57:32.985Z,19.30
2018-05-03T15:00:01.971Z,19.20
2018-05-03T15:02:30.224Z,19.20
2018-05-03T15:04:58.447Z,19.20
2018-05-03T15:07:26.665Z,19.30
2018-05-03T15:09:54.896Z,19.30
2018-05-03T15:12:23.142Z,19.40
2018-05-03T15:14:51.386Z,19.40
2018-05-03T15:17:19.613Z,19.50
2018-05-03T15:19:48.601Z,19.50
2018-05-03T15:22:17.635Z,19.40
2018-05-03T15:24:45.879Z,19.40
2018-05-03T15:27:14.116Z,19.30
2018-05-03T15:29:42.412Z,19.30
2018-05-03T15:32:10.672Z,19.20
2018-05-03T15:34:39.643Z,19.20
2018-05-03T15:37:07.867Z,19.20
2018-05-03T15:39:36.123Z,19.20
2018-05-03T15:42:04.360Z,19.10
2018-05-03T15:44:32.657Z,19.00
2018-05-03T15:47:00.894Z,18.90
2018-05-03T15:49:29.124Z,18.90
2018-05-03T15:51:57.373Z,18.80
2018-05-03T15:54:25.584Z,18.80
2018-05-03T15:56:53.804Z,18.70
2018-05-03T15:59:22.047Z,18.70
2018-05-03T16:01:50.268Z,18.70
2018-05-03T16:04:18.501Z,18.80
2018-05-03T16:06:47.606Z,18.80
2018-05-03T16:09:16.601Z,18.70
2018-05-03T16:11:45.619Z,18.80
2018-05-03T16:14:13.919Z,18.80
2018-05-03T16:16:42.145Z,18.80
2018-05-03T16:19:10.363Z,18.90
2018-05-03T16:21:38.860Z,18.80
2018-05-03T16:24:07.983Z,18.80
2018-05-03T16:26:36.271Z,18.90
2018-05-03T16:29:04.460Z,18.90
2018-05-03T16:31:33.440Z,18.90
2018-05-03T16:34:02.420Z,19.00
2018-05-03T16:36:30.655Z,19.00
2018-05-03T16:38:58.908Z,19.00
2018-05-03T16:41:27.124Z,19.00
2018-05-03T16:43:56.108Z,18.90
2018-05-03T16:46:24.351Z,18.90
2018-05-03T16:48:52.614Z,18.90
2018-05-03T16:51:21.840Z,18.80
2018-05-03T16:53:51.564Z,18.80
2018-05-03T16:56:19.820Z,18.80
2018-05-03T16:58:48.047Z,18.80
2018-05-03T17:01:16.276Z,18.70
2018-05-03T17:03:44.517Z,18.70
2018-05-03T17:06:12.865Z,18.60
2018-05-03T17:08:41.081Z,18.60
2018-05-03T17:11:10.130Z,18.60
2018-05-03T17:13:39.115Z,18.50
2018-05-03T17:16:07.337Z,18.50
2018-05-03T17:18:35.577Z,18.50
2018-05-03T17:21:03.881Z,18.40
2018-05-03T17:23:32.088Z,18.60
2018-05-03T17:26:00.300Z,18.60
2018-05-03T17:28:28.534Z,18.90
2018-05-03T17:30:57.528Z,19.50
2018-05-03T17:33:26.538Z,19.70
2018-05-03T17:35:54.780Z,19.70
2018-05-03T17:38:23.786Z,20.00
2018-05-03T17:40:52.015Z,20.00
2018-05-03T17:43:20.226Z,20.10
2018-05-03T17:45:48.461Z,20.30
2018-05-03T17:48:16.690Z,20.20
2018-05-03T17:50:44.900Z,19.80
2018-05-03T17:53:13.127Z,19.50
2018-05-03T17:55:41.376Z,19.30
2018-05-03T17:58:09.641Z,18.90
2018-05-03T18:00:37.906Z,18.70
2018-05-03T18:03:06.129Z,18.60
2018-05-03T18:05:34.361Z,18.60
2018-05-03T18:08:02.620Z,18.40
2018-05-03T18:10:30.834Z,18.20
2018-05-03T18:12:59.069Z,18.00
2018-05-03T18:15:27.292Z,18.00
2018-05-03T18:17:55.524Z,18.00
2018-05-03T18:20:23.755Z,17.80
2018-05-03T18:22:51.976Z,17.70
2018-05-03T18:25:20.202Z,17.80
2018-05-03T18:27:48.450Z,17.70
2018-05-03T18:30:16.667Z,17.70
2018-05-03T18:32:45.691Z,17.60
2018-05-03T18:35:13.932Z,17.60
2018-05-03T18:37:42.153Z,17.60
2018-05-03T18:40:10.385Z,17.50
2018-05-03T18:42:38.627Z,17.40
2018-05-03T18:45:06.848Z,17.40
2018-05-03T18:47:35.105Z,17.30
2018-05-03T18:50:04.052Z,17.10
2018-05-03T18:52:32.299Z,17.10
2018-05-03T18:55:00.568Z,17.00
2018-05-03T18:57:28.797Z,17.00
2018-05-03T18:59:57.051Z,17.00
2018-05-03T19:02:25.274Z,16.90
2018-05-03T19:04:53.505Z,16.90
2018-05-03T19:07:22.657Z,16.90
2018-05-03T19:09:50.900Z,16.80
2018-05-03T19:12:19.508Z,16.70
2018-05-03T19:14:47.892Z,16.70
2018-05-03T19:17:16.129Z,16.70
2018-05-03T19:19:44.960Z,16.60
2018-05-03T19:22:13.968Z,16.50
2018-05-03T19:24:42.201Z,16.50
2018-05-03T19:27:10.465Z,16.60
2018-05-03T19:29:38.684Z,16.50
2018-05-03T19:32:06.944Z,16.40
2018-05-03T19:34:35.173Z,16.40
2018-05-03T19:37:03.388Z,16.40
2018-05-03T19:39:31.619Z,16.40
2018-05-03T19:41:59.846Z,16.30
2018-05-03T19:44:28.076Z,16.30
2018-05-03T19:46:56.298Z,16.20
2018-05-03T19:49:24.543Z,16.00
2018-05-03T19:51:52.772Z,16.10
2018-05-03T19:54:20.976Z,16.10
2018-05-03T19:56:49.212Z,16.20
2018-05-03T19:59:17.434Z,16.20
2018-05-03T20:01:45.697Z,16.20
2018-05-03T20:04:14.911Z,16.30
2018-05-03T20:06:43.123Z,16.20
2018-05-03T20:09:11.365Z,16.10
2018-05-03T20:11:39.616Z,16.10
2018-05-03T20:14:07.879Z,16.10
2018-05-03T20:16:36.871Z,16.00
2018-05-03T20:19:05.861Z,16.00
2018-05-03T20:21:34.876Z,16.00
2018-05-03T20:24:03.123Z,15.90
2018-05-03T20:26:31.366Z,15.90
2018-05-03T20:28:59.581Z,15.90
2018-05-03T20:31:27.817Z,15.90
2018-05-03T20:33:56.153Z,15.90
2018-05-03T20:36:25.140Z,15.90
2018-05-03T20:38:54.154Z,15.70
2018-05-03T20:41:22.355Z,15.70
2018-05-03T20:43:50.830Z,15.70
2018-05-03T20:46:19.050Z,15.70
2018-05-03T20:48:47.285Z,15.70
2018-05-03T20:51:15.525Z,15.70
2018-05-03T20:53:43.757Z,15.60
2018-05-03T20:56:11.992Z,15.60
2018-05-03T20:58:40.223Z,15.60
2018-05-03T21:01:08.469Z,15.60
2018-05-03T21:03:36.684Z,15.60
2018-05-03T21:06:04.937Z,15.50
2018-05-03T21:08:33.153Z,15.30
2018-05-03T21:11:01.368Z,15.30
2018-05-03T21:13:29.620Z,15.20
2018-05-03T21:15:57.858Z,15.20
2018-05-03T21:18:26.100Z,15.30
2018-05-03T21:20:54.334Z,15.20
2018-05-03T21:23:22.551Z,15.10
2018-05-03T21:25:51.388Z,15.10
2018-05-03T21:28:19.897Z,15.10
2018-05-03T21:30:48.128Z,15.10
2018-05-03T21:33:16.405Z,15.10
2018-05-03T21:35:44.619Z,15.00
2018-05-03T21:40:47.504Z,15.00
2018-05-03T21:43:15.720Z,15.10
2018-05-03T21:45:43.969Z,15.00
2018-05-03T21:48:12.196Z,15.00
2018-05-03T21:50:40.428Z,15.10
2018-05-03T21:53:08.674Z,15.00
2018-05-03T21:55:36.900Z,15.00
2018-05-03T21:58:05.148Z,14.90
2018-05-03T22:00:33.413Z,14.90
2018-05-03T22:03:02.420Z,14.90
2018-05-03T22:05:30.636Z,14.90
2018-05-03T22:07:58.874Z,14.90
2018-05-03T22:10:27.101Z,14.90
2018-05-03T22:12:55.347Z,14.80
2018-05-03T22:15:23.575Z,14.90
2018-05-03T22:17:52.556Z,14.80
2018-05-03T22:20:20.798Z,14.80
2018-05-03T22:22:49.010Z,14.80
2018-05-03T22:25:17.286Z,14.70
2018-05-03T22:27:45.526Z,14.60
2018-05-03T22:30:13.755Z,14.60
2018-05-03T22:32:41.988Z,14.40
2018-05-03T22:35:10.208Z,14.30
2018-05-03T22:37:39.217Z,14.20
2018-05-03T22:40:07.431Z,14.10
2018-05-03T22:42:36.416Z,14.20
2018-05-03T22:45:04.655Z,14.10
2018-05-03T22:47:33.679Z,14.10
2018-05-03T22:50:02.673Z,14.20
2018-05-03T22:52:30.891Z,14.10
2018-05-03T22:54:59.184Z,14.10
2018-05-03T22:57:27.385Z,14.10
2018-05-03T22:59:55.619Z,14.20
2018-05-03T23:02:23.836Z,14.10
2018-05-03T23:04:52.076Z,13.90
2018-05-03T23:07:20.302Z,13.90
2018-05-03T23:09:48.564Z,14.00
2018-05-03T23:12:17.508Z,13.90
2018-05-03T23:14:45.750Z,13.90
2018-05-03T23:17:13.977Z,13.90
2018-05-03T23:19:42.994Z,13.80
2018-05-03T23:22:11.213Z,13.80
2018-05-03T23:24:39.437Z,13.80
2018-05-03T23:27:08.476Z,13.70
2018-05-03T23:29:36.700Z,13.60
2018-05-03T23:32:05.711Z,13.50
2018-05-03T23:34:33.932Z,13.40
2018-05-03T23:37:02.167Z,13.50
2018-05-03T23:39:30.381Z,13.50
2018-05-03T23:41:58.623Z,13.60
2018-05-03T23:44:26.856Z,13.50
2018-05-03T23:46:55.101Z,13.50
2018-05-03T23:49:23.321Z,13.50
2018-05-03T23:51:52.324Z,13.50
2018-05-03T23:54:21.367Z,13.50
2018-05-03T23:56:49.590Z,13.40
2018-05-03T23:59:18.607Z,13.40
